createdAt,value
2023-05-05T00:00:21.598Z,98913.44
2023-05-05T00:03:09.347Z,98927.59
2023-05-05T00:05:36.631Z,98927.59
2023-05-05T00:08:04.430Z,98917.94
2023-05-05T00:10:32.505Z,98914.25
2023-05-05T00:13:00.110Z,98916.94
2023-05-05T00:15:27.980Z,98916.13
2023-05-05T00:17:56.076Z,98913.44
2023-05-05T00:20:23.472Z,98908.28
2023-05-05T00:22:51.012Z,98907.28
2023-05-05T00:25:18.472Z,98909.94
2023-05-05T00:27:45.992Z,98903.78
2023-05-05T00:30:13.696Z,98906.44
2023-05-05T00:32:41.535Z,98901.13
2023-05-05T00:35:08.966Z,98896.81
2023-05-05T00:37:36.535Z,98898.44
2023-05-05T00:40:03.971Z,98890.63
2023-05-05T00:42:45.872Z,98885.31
2023-05-05T00:45:15.372Z,98880.81
2023-05-05T00:47:45.203Z,98883.66
2023-05-05T00:50:21.539Z,98886.34
2023-05-05T00:52:50.947Z,98883.66
2023-05-05T00:55:18.813Z,98887.97
2023-05-05T00:57:48.305Z,98886.34
2023-05-05T01:00:16.592Z,98889.00
2023-05-05T01:02:44.851Z,98890.00
2023-05-05T01:05:14.338Z,98891.84
2023-05-05T01:07:50.685Z,98891.03
2023-05-05T01:10:38.319Z,98892.66
2023-05-05T01:13:18.276Z,98892.66
2023-05-05T01:16:04.441Z,98888.38
2023-05-05T01:18:31.991Z,98891.03
2023-05-05T01:21:11.287Z,98887.56
2023-05-05T01:24:00.814Z,98883.22
2023-05-05T01:26:43.789Z,98879.56
2023-05-05T01:29:11.231Z,98882.22
2023-05-05T01:31:51.861Z,98886.72
2023-05-05T01:34:26.195Z,98882.41
2023-05-05T01:36:59.460Z,98869.06
2023-05-05T01:39:31.478Z,98871.75
2023-05-05T01:42:02.719Z,98882.41
2023-05-05T01:44:32.949Z,98869.25
2023-05-05T01:47:02.560Z,98869.06
2023-05-05T01:49:32.840Z,98871.75
2023-05-05T01:52:03.610Z,98879.91
2023-05-05T01:54:34.544Z,98873.78
2023-05-05T01:57:04.894Z,98872.13
2023-05-05T01:59:33.894Z,98875.81
2023-05-05T02:02:02.897Z,98872.94
2023-05-05T02:04:33.111Z,98875.63
2023-05-05T02:07:02.148Z,98872.94
2023-05-05T02:09:31.472Z,98873.13
2023-05-05T02:12:01.976Z,98874.81
2023-05-05T02:14:31.003Z,98878.47
2023-05-05T02:16:59.001Z,98873.13
2023-05-05T02:19:33.866Z,98869.47
2023-05-05T02:22:01.155Z,98871.50
2023-05-05T02:24:29.234Z,98873.13
2023-05-05T02:26:58.924Z,98873.13
2023-05-05T02:29:32.784Z,98864.31
2023-05-05T02:32:09.708Z,98865.13
2023-05-05T02:34:40.183Z,98866.97
2023-05-05T02:37:11.121Z,98868.84
2023-05-05T02:39:45.837Z,98860.84
2023-05-05T02:42:16.948Z,98860.00
2023-05-05T02:44:46.268Z,98861.84
2023-05-05T02:47:13.574Z,98861.84
2023-05-05T02:49:42.484Z,98858.34
2023-05-05T02:52:09.837Z,98864.50
2023-05-05T02:54:37.428Z,98863.69
2023-05-05T02:57:04.683Z,98861.84
2023-05-05T02:59:47.394Z,98865.53
2023-05-05T03:02:17.922Z,98859.38
2023-05-05T03:04:49.341Z,98860.19
2023-05-05T03:07:24.981Z,98860.19
2023-05-05T03:10:03.209Z,98853.22
2023-05-05T03:12:38.337Z,98853.22
2023-05-05T03:15:09.224Z,98858.53
2023-05-05T03:17:37.759Z,98855.88
2023-05-05T03:20:07.819Z,98864.72
2023-05-05T03:22:37.189Z,98856.91
2023-05-05T03:25:06.099Z,98864.91
2023-05-05T03:27:33.429Z,98867.56
2023-05-05T03:30:01.059Z,98876.38
2023-05-05T03:32:28.812Z,98872.88
2023-05-05T03:34:56.719Z,98869.19
2023-05-05T03:37:24.004Z,98872.88
2023-05-05T03:39:51.496Z,98879.84
2023-05-05T03:42:18.765Z,98873.72
2023-05-05T03:44:46.453Z,98877.19
2023-05-05T03:47:13.743Z,98874.53
2023-05-05T03:49:42.007Z,98870.22
2023-05-05T03:52:09.252Z,98863.88
2023-05-05T03:54:36.775Z,98861.19
2023-05-05T03:57:04.184Z,98860.38
2023-05-05T03:59:31.768Z,98860.19
2023-05-05T04:01:59.071Z,98863.88
2023-05-05T04:04:26.673Z,98857.72
2023-05-05T04:06:54.024Z,98859.56
2023-05-05T04:09:21.508Z,98867.56
2023-05-05T04:11:48.801Z,98873.72
2023-05-05T04:14:16.489Z,98878.22
2023-05-05T04:16:43.756Z,98885.19
2023-05-05T04:19:13.084Z,98879.84
2023-05-05T04:21:40.410Z,98883.56
2023-05-05T04:24:07.931Z,98884.38
2023-05-05T04:26:35.851Z,98885.19
2023-05-05T04:29:03.808Z,98885.19
2023-05-05T04:31:31.991Z,98885.19
2023-05-05T04:33:59.561Z,98893.00
2023-05-05T04:36:26.789Z,98893.81
2023-05-05T04:38:54.342Z,98907.16
2023-05-05T04:41:21.758Z,98901.63
2023-05-05T04:43:49.360Z,98896.31
2023-05-05T04:46:16.608Z,98895.28
2023-05-05T04:48:44.402Z,98894.28
2023-05-05T04:51:12.712Z,98890.56
2023-05-05T04:53:40.349Z,98893.88
2023-05-05T04:56:07.627Z,98898.00
2023-05-05T04:58:35.948Z,98903.34
2023-05-05T05:01:03.460Z,98910.31
2023-05-05T05:03:32.022Z,98906.00
2023-05-05T05:05:59.539Z,98911.97
2023-05-05T05:08:27.097Z,98919.78
2023-05-05T05:10:54.297Z,98917.94
2023-05-05T05:13:21.902Z,98924.28
2023-05-05T05:15:49.338Z,98918.97
2023-05-05T05:18:17.012Z,98925.94
2023-05-05T05:20:44.312Z,98925.09
2023-05-05T05:23:11.823Z,98919.59
2023-05-05T05:25:39.257Z,98925.75
2023-05-05T05:28:10.778Z,98923.91
2023-05-05T05:30:38.370Z,98929.88
2023-05-05T05:33:06.732Z,98928.03
2023-05-05T05:35:35.236Z,98927.84
2023-05-05T05:38:02.793Z,98933.16
2023-05-05T05:40:30.341Z,98937.28
2023-05-05T05:42:58.008Z,98939.97
2023-05-05T05:45:25.394Z,98937.09
2023-05-05T05:47:52.978Z,98943.06
2023-05-05T05:50:21.008Z,98939.38
2023-05-05T05:52:48.541Z,98942.03
2023-05-05T05:55:15.857Z,98943.72
2023-05-05T05:57:44.416Z,98943.72
2023-05-05T06:00:12.496Z,98948.88
2023-05-05T06:02:40.126Z,98947.03
2023-05-05T06:05:07.839Z,98953.97
2023-05-05T06:07:35.442Z,98944.97
2023-05-05T06:10:11.234Z,98941.28
2023-05-05T06:12:46.473Z,98943.78
2023-05-05T06:15:13.788Z,98942.97
2023-05-05T06:17:41.281Z,98940.06
2023-05-05T06:20:09.145Z,98935.59
2023-05-05T06:22:36.898Z,98937.22
2023-05-05T06:25:04.349Z,98931.91
2023-05-05T06:27:31.873Z,98942.19
2023-05-05T06:29:59.463Z,98936.88
2023-05-05T06:32:27.005Z,98935.84
2023-05-05T06:34:54.284Z,98947.13
2023-05-05T06:37:21.866Z,98941.81
2023-05-05T06:39:49.132Z,98943.44
2023-05-05T06:42:16.671Z,98942.44
2023-05-05T06:44:43.898Z,98935.25
2023-05-05T06:47:12.112Z,98937.72
2023-05-05T06:49:39.373Z,98937.72
2023-05-05T06:52:08.230Z,98939.38
2023-05-05T06:54:35.564Z,98933.03
2023-05-05T06:57:03.255Z,98934.66
2023-05-05T06:59:30.716Z,98935.31
2023-05-05T07:01:58.299Z,98931.63
2023-05-05T07:04:26.830Z,98931.41
2023-05-05T07:06:55.218Z,98934.94
2023-05-05T07:09:22.758Z,98931.25
2023-05-05T07:11:50.511Z,98940.91
2023-05-05T07:14:17.807Z,98932.91
2023-05-05T07:16:45.357Z,98926.34
2023-05-05T07:19:12.628Z,98933.31
2023-05-05T07:21:40.150Z,98925.13
2023-05-05T07:24:07.555Z,98921.44
2023-05-05T07:26:35.356Z,98922.06
2023-05-05T07:29:04.397Z,98919.41
2023-05-05T07:31:31.907Z,98919.41
2023-05-05T07:33:59.209Z,98922.69
2023-05-05T07:36:27.891Z,98917.38
2023-05-05T07:38:55.409Z,98917.38
2023-05-05T07:41:23.008Z,98915.53
2023-05-05T07:43:50.270Z,98918.81
2023-05-05T07:46:18.082Z,98910.00
2023-05-05T07:48:45.421Z,98909.81
2023-05-05T07:51:13.024Z,98916.78
2023-05-05T07:53:41.068Z,98920.94
2023-05-05T07:56:09.039Z,98916.59
2023-05-05T07:58:36.361Z,98917.25
2023-05-05T08:01:06.458Z,98914.59
2023-05-05T08:03:34.324Z,98911.72
2023-05-05T08:06:08.119Z,98912.53
2023-05-05T08:08:35.981Z,98910.50
2023-05-05T08:11:04.013Z,98908.66
2023-05-05T08:13:32.444Z,98910.09
2023-05-05T08:16:00.541Z,98905.63
2023-05-05T08:18:27.926Z,98909.09
2023-05-05T08:20:55.556Z,98906.44
2023-05-05T08:23:22.835Z,98904.41
2023-05-05T08:25:50.328Z,98906.84
2023-05-05T08:28:17.590Z,98905.03
2023-05-05T08:30:45.102Z,98911.00
2023-05-05T08:33:12.518Z,98911.00
2023-05-05T08:35:40.077Z,98919.63
2023-05-05T08:38:07.399Z,98906.28
2023-05-05T08:40:38.009Z,98905.25
2023-05-05T08:43:05.599Z,98902.41
2023-05-05T08:45:33.317Z,98904.03
2023-05-05T08:48:03.556Z,98899.50
2023-05-05T08:50:32.071Z,98894.00
2023-05-05T08:53:02.327Z,98897.47
2023-05-05T08:55:34.791Z,98885.78
2023-05-05T08:58:05.736Z,98890.09
2023-05-05T09:00:33.662Z,98886.41
2023-05-05T09:03:04.398Z,98883.56
2023-05-05T09:05:32.076Z,98889.72
2023-05-05T09:07:59.567Z,98887.69
2023-05-05T09:10:28.760Z,98882.34
2023-05-05T09:12:56.638Z,98885.63
2023-05-05T09:15:24.195Z,98888.31
2023-05-05T09:17:51.589Z,98888.09
2023-05-05T09:20:19.174Z,98888.94
2023-05-05T09:22:47.653Z,98889.75
2023-05-05T09:25:17.208Z,98881.56
2023-05-05T09:27:46.491Z,98883.19
2023-05-05T09:30:32.128Z,98890.16
2023-05-05T09:33:00.395Z,98876.81
2023-05-05T09:35:28.422Z,98888.13
2023-05-05T09:37:55.878Z,98886.06
2023-05-05T09:40:23.470Z,98886.06
2023-05-05T09:43:01.462Z,98878.69
2023-05-05T09:45:29.361Z,98875.00
2023-05-05T09:47:59.641Z,98881.19
2023-05-05T09:50:30.732Z,98884.66
2023-05-05T09:53:02.936Z,98882.00
2023-05-05T09:55:31.497Z,98879.94
2023-05-05T09:58:17.944Z,98891.25
2023-05-05T10:00:46.413Z,98882.25
2023-05-05T10:03:13.771Z,98875.84
2023-05-05T10:05:51.919Z,98884.50
2023-05-05T10:08:21.411Z,98879.16
2023-05-05T10:10:54.677Z,98879.78
2023-05-05T10:13:23.491Z,98873.41
2023-05-05T10:15:56.630Z,98871.34
2023-05-05T10:18:28.423Z,98868.50
2023-05-05T10:21:01.184Z,98871.97
2023-05-05T10:24:00.408Z,98860.28
2023-05-05T10:26:34.507Z,98867.28
2023-05-05T10:29:04.067Z,98858.25
2023-05-05T10:31:45.855Z,98865.22
2023-05-05T10:34:37.930Z,98872.22
2023-05-05T10:37:06.699Z,98867.50
2023-05-05T10:39:36.172Z,98855.78
2023-05-05T10:42:03.749Z,98862.78
2023-05-05T10:44:34.519Z,98859.09
2023-05-05T10:47:02.850Z,98860.72
2023-05-05T10:49:42.135Z,98858.66
2023-05-05T10:52:34.380Z,98855.00
2023-05-05T10:55:05.837Z,98849.66
2023-05-05T10:57:39.090Z,98844.31
2023-05-05T11:00:08.790Z,98843.25
2023-05-05T11:02:37.273Z,98845.94
2023-05-05T11:05:18.081Z,98846.78
2023-05-05T11:07:49.990Z,98842.88
2023-05-05T11:10:23.262Z,98842.06
2023-05-05T11:12:54.135Z,98834.88
2023-05-05T11:15:27.593Z,98831.78
2023-05-05T11:17:56.716Z,98834.44
2023-05-05T11:20:36.818Z,98835.06
2023-05-05T11:23:04.879Z,98833.22
2023-05-05T11:25:40.509Z,98835.69
2023-05-05T11:28:18.559Z,98832.00
2023-05-05T11:30:54.948Z,98833.66
2023-05-05T11:33:33.450Z,98833.44
2023-05-05T11:36:09.033Z,98829.94
2023-05-05T11:38:36.550Z,98829.94
2023-05-05T11:41:33.431Z,98833.25
2023-05-05T11:44:16.247Z,98822.56
2023-05-05T11:46:52.853Z,98830.59
2023-05-05T11:49:35.002Z,98834.91
2023-05-05T11:52:08.760Z,98831.22
2023-05-05T11:54:38.461Z,98826.47
2023-05-05T11:57:07.436Z,98829.16
2023-05-05T11:59:37.224Z,98822.19
2023-05-05T12:02:04.901Z,98823.81
2023-05-05T12:04:32.737Z,98814.97
2023-05-05T12:07:00.212Z,98817.66
2023-05-05T12:09:27.901Z,98806.16
2023-05-05T12:11:57.350Z,98821.38
2023-05-05T12:14:25.836Z,98819.69
2023-05-05T12:17:03.421Z,98821.56
2023-05-05T12:19:33.008Z,98813.13
2023-05-05T12:22:04.496Z,98801.41
2023-05-05T12:24:32.223Z,98811.88
2023-05-05T12:27:17.617Z,98811.88
2023-05-05T12:29:45.111Z,98818.91
2023-05-05T12:32:23.379Z,98819.72
2023-05-05T12:34:57.186Z,98811.50
2023-05-05T12:37:26.090Z,98809.03
2023-05-05T12:39:54.978Z,98806.97
2023-05-05T12:42:23.196Z,98816.66
2023-05-05T12:44:50.913Z,98806.97
2023-05-05T12:47:32.381Z,98808.63
2023-05-05T12:50:00.785Z,98807.59
2023-05-05T12:52:42.953Z,98806.97
2023-05-05T12:55:11.694Z,98801.00
2023-05-05T12:57:39.602Z,98795.66
2023-05-05T13:00:17.767Z,98790.94
2023-05-05T13:02:45.195Z,98786.63
2023-05-05T13:05:12.832Z,98781.28
2023-05-05T13:07:51.695Z,98783.53
2023-05-05T13:10:19.314Z,98784.34
2023-05-05T13:12:47.298Z,98781.47
2023-05-05T13:15:14.914Z,98772.22
2023-05-05T13:17:42.320Z,98776.56
2023-05-05T13:20:11.196Z,98776.56
2023-05-05T13:22:38.492Z,98776.56
2023-05-05T13:25:07.233Z,98779.00
2023-05-05T13:27:34.748Z,98766.06
2023-05-05T13:30:02.313Z,98762.78
2023-05-05T13:32:29.668Z,98766.69
2023-05-05T13:34:57.896Z,98766.25
2023-05-05T13:37:25.176Z,98764.22
2023-05-05T13:39:53.155Z,98761.34
2023-05-05T13:42:20.470Z,98747.78
2023-05-05T13:44:48.012Z,98759.91
2023-05-05T13:47:15.359Z,98757.00
2023-05-05T13:49:42.901Z,98752.28
2023-05-05T13:52:10.178Z,98744.25
2023-05-05T13:54:38.016Z,98748.16
2023-05-05T13:57:07.887Z,98744.47
2023-05-05T13:59:35.624Z,98750.63
2023-05-05T14:02:03.079Z,98746.09
2023-05-05T14:04:30.857Z,98746.72
2023-05-05T14:06:58.554Z,98740.38
2023-05-05T14:09:26.182Z,98732.97
2023-05-05T14:11:53.523Z,98737.47
2023-05-05T14:14:21.037Z,98739.94
2023-05-05T14:16:50.205Z,98734.59
2023-05-05T14:19:18.031Z,98729.06
2023-05-05T14:21:45.282Z,98726.16
2023-05-05T14:24:12.798Z,98732.09
2023-05-05T14:26:40.286Z,98726.75
2023-05-05T14:29:08.060Z,98726.75
2023-05-05T14:31:36.626Z,98735.41
2023-05-05T14:34:04.158Z,98741.59
2023-05-05T14:36:31.423Z,98736.00
2023-05-05T14:38:58.981Z,98735.00
2023-05-05T14:41:26.329Z,98741.97
2023-05-05T14:43:53.942Z,98743.63
2023-05-05T14:46:21.248Z,98730.03
2023-05-05T14:48:48.794Z,98741.59
2023-05-05T14:51:16.369Z,98737.88
2023-05-05T14:53:44.193Z,98733.56
2023-05-05T14:56:11.464Z,98732.50
2023-05-05T14:58:38.991Z,98730.47
2023-05-05T15:01:06.264Z,98739.53
2023-05-05T15:03:33.877Z,98729.66
2023-05-05T15:06:01.290Z,98749.59
2023-05-05T15:08:28.817Z,98735.19
2023-05-05T15:10:56.323Z,98739.91
2023-05-05T15:13:23.962Z,98738.50
2023-05-05T15:15:51.353Z,98744.44
2023-05-05T15:18:19.436Z,98742.59
2023-05-05T15:20:46.706Z,98737.88
2023-05-05T15:23:14.273Z,98744.88
2023-05-05T15:25:41.655Z,98744.88
2023-05-05T15:28:09.210Z,98738.69
2023-05-05T15:30:36.554Z,98736.84
2023-05-05T15:33:04.140Z,98728.81
2023-05-05T15:35:31.440Z,98734.19
2023-05-05T15:37:58.963Z,98735.19
2023-05-05T15:40:26.372Z,98740.53
2023-05-05T15:42:53.948Z,98735.38
2023-05-05T15:45:21.211Z,98724.69
2023-05-05T15:47:50.510Z,98732.09
2023-05-05T15:50:18.047Z,98731.28
2023-05-05T15:52:46.686Z,98721.84
2023-05-05T15:55:15.180Z,98725.31
2023-05-05T15:57:42.728Z,98724.69
2023-05-05T16:00:10.975Z,98719.34
2023-05-05T16:02:38.655Z,98717.72
2023-05-05T16:05:06.849Z,98721.41
2023-05-05T16:07:34.574Z,98707.44
2023-05-05T16:10:02.968Z,98712.78
2023-05-05T16:12:30.548Z,98709.50
2023-05-05T16:14:57.847Z,98707.84
2023-05-05T16:17:25.524Z,98714.44
2023-05-05T16:19:52.766Z,98709.09
2023-05-05T16:22:21.098Z,98718.13
2023-05-05T16:24:48.999Z,98710.34
2023-05-05T16:27:16.936Z,98715.69
2023-05-05T16:29:44.273Z,98724.72
2023-05-05T16:32:11.962Z,98714.84
2023-05-05T16:34:39.186Z,98707.06
2023-05-05T16:37:06.705Z,98719.38
2023-05-05T16:39:35.197Z,98717.75
2023-05-05T16:42:03.520Z,98724.72
2023-05-05T16:44:30.763Z,98713.41
2023-05-05T16:46:58.763Z,98717.94
2023-05-05T16:49:26.013Z,98719.81
2023-05-05T16:51:53.651Z,98721.84
2023-05-05T16:54:20.980Z,98728.84
2023-05-05T16:56:48.447Z,98721.03
2023-05-05T16:59:16.978Z,98722.88
2023-05-05T17:01:44.800Z,98721.25
2023-05-05T17:04:12.178Z,98717.75
2023-05-05T17:06:39.837Z,98719.59
2023-05-05T17:09:07.296Z,98726.78
2023-05-05T17:11:34.874Z,98719.59
2023-05-05T17:14:02.159Z,98726.78
2023-05-05T17:16:29.891Z,98728.66
2023-05-05T17:18:57.133Z,98725.16
2023-05-05T17:21:24.647Z,98726.97
2023-05-05T17:23:51.949Z,98738.72
2023-05-05T17:26:19.868Z,98737.91
2023-05-05T17:28:47.712Z,98741.59
2023-05-05T17:31:15.234Z,98740.78
2023-05-05T17:33:42.552Z,98744.50
2023-05-05T17:36:10.257Z,98742.81
2023-05-05T17:38:37.706Z,98748.97
2023-05-05T17:41:05.262Z,98757.22
2023-05-05T17:43:32.482Z,98747.56
2023-05-05T17:46:00.072Z,98747.56
2023-05-05T17:48:27.399Z,98753.94
2023-05-05T17:50:54.924Z,98743.25
2023-05-05T17:53:22.369Z,98747.97
2023-05-05T17:55:49.826Z,98741.81
2023-05-05T17:58:17.044Z,98742.81
2023-05-05T18:00:44.851Z,98740.34
2023-05-05T18:03:12.523Z,98745.69
2023-05-05T18:05:40.127Z,98744.06
2023-05-05T18:08:07.505Z,98752.09
2023-05-05T18:10:35.073Z,98753.09
2023-05-05T18:13:02.529Z,98753.09
2023-05-05T18:15:30.081Z,98750.41
2023-05-05T18:17:57.495Z,98751.47
2023-05-05T18:20:25.361Z,98753.47
2023-05-05T18:22:52.621Z,98752.44
2023-05-05T18:25:20.357Z,98751.00
2023-05-05T18:27:47.720Z,98746.50
2023-05-05T18:30:16.376Z,98759.03
2023-05-05T18:32:43.754Z,98755.53
2023-05-05T18:35:11.776Z,98753.91
2023-05-05T18:37:39.494Z,98756.78
2023-05-05T18:40:09.887Z,98752.25
2023-05-05T18:42:37.105Z,98756.78
2023-05-05T18:45:05.357Z,98761.28
2023-05-05T18:47:33.782Z,98749.75
2023-05-05T18:50:01.526Z,98752.66
2023-05-05T18:52:28.891Z,98757.16
2023-05-05T18:54:56.410Z,98764.34
2023-05-05T18:57:23.822Z,98764.34
2023-05-05T18:59:51.725Z,98756.34
2023-05-05T19:02:19.211Z,98764.59
2023-05-05T19:04:46.961Z,98763.75
2023-05-05T19:07:21.123Z,98763.75
2023-05-05T19:09:56.578Z,98759.44
2023-05-05T19:12:23.919Z,98749.75
2023-05-05T19:14:51.796Z,98764.78
2023-05-05T19:17:19.102Z,98765.78
2023-05-05T19:19:46.742Z,98760.44
2023-05-05T19:22:14.884Z,98758.81
2023-05-05T19:24:42.529Z,98758.81
2023-05-05T19:27:15.482Z,98764.16
2023-05-05T19:29:43.979Z,98758.19
2023-05-05T19:32:11.270Z,98755.53
2023-05-05T19:34:38.882Z,98746.69
2023-05-05T19:37:06.203Z,98751.19
2023-05-05T19:39:33.926Z,98753.03
2023-05-05T19:42:01.189Z,98742.34
2023-05-05T19:44:28.727Z,98752.22
2023-05-05T19:46:55.987Z,98752.22
2023-05-05T19:49:23.582Z,98753.28
2023-05-05T19:51:52.039Z,98752.22
2023-05-05T19:54:19.789Z,98754.09
2023-05-05T19:56:47.174Z,98757.56
2023-05-05T19:59:14.726Z,98753.28
2023-05-05T20:01:42.131Z,98755.94
2023-05-05T20:04:09.782Z,98755.94
2023-05-05T20:06:37.420Z,98752.66
2023-05-05T20:09:05.382Z,98743.59
2023-05-05T20:11:33.270Z,98754.28
2023-05-05T20:14:01.576Z,98748.94
2023-05-05T20:16:29.925Z,98752.66
2023-05-05T20:18:57.703Z,98739.28
2023-05-05T20:21:25.286Z,98747.31
2023-05-05T20:23:54.495Z,98729.63
2023-05-05T20:26:22.471Z,98733.09
2023-05-05T20:28:49.989Z,98734.97
2023-05-05T20:31:17.347Z,98734.97
2023-05-05T20:33:45.072Z,98744.00
2023-05-05T20:36:12.411Z,98744.81
2023-05-05T20:38:39.982Z,98736.00
2023-05-05T20:41:07.254Z,98737.00
2023-05-05T20:43:36.307Z,98742.34
2023-05-05T20:46:03.690Z,98731.66
2023-05-05T20:48:31.202Z,98727.38
2023-05-05T20:50:58.896Z,98730.03
2023-05-05T20:53:26.493Z,98725.69
2023-05-05T20:55:53.742Z,98731.03
2023-05-05T20:58:22.620Z,98728.38
2023-05-05T21:00:50.136Z,98729.41
2023-05-05T21:03:17.818Z,98729.41
2023-05-05T21:05:45.124Z,98732.91
2023-05-05T21:08:12.622Z,98729.41
2023-05-05T21:10:39.857Z,98734.75
2023-05-05T21:13:07.593Z,98727.75
2023-05-05T21:15:38.029Z,98731.28
2023-05-05T21:18:06.131Z,98719.75
2023-05-05T21:20:34.902Z,98717.28
2023-05-05T21:23:02.452Z,98714.41
2023-05-05T21:25:30.600Z,98717.50
2023-05-05T21:27:58.077Z,98711.09
2023-05-05T21:30:25.628Z,98722.84
2023-05-05T21:32:53.204Z,98721.78
2023-05-05T21:35:21.082Z,98723.84
2023-05-05T21:37:48.812Z,98721.16
2023-05-05T21:40:16.441Z,98726.50
2023-05-05T21:42:44.015Z,98719.53
2023-05-05T21:45:11.855Z,98715.84
2023-05-05T21:47:39.438Z,98716.88
2023-05-05T21:50:07.473Z,98710.72
2023-05-05T21:52:35.475Z,98710.72
2023-05-05T21:55:03.697Z,98709.88
2023-05-05T21:57:31.250Z,98709.06
2023-05-05T21:59:58.484Z,98708.25
2023-05-05T22:02:26.052Z,98706.59
2023-05-05T22:04:53.622Z,98702.91
2023-05-05T22:07:21.151Z,98702.09
2023-05-05T22:09:48.505Z,98706.59
2023-05-05T22:12:16.344Z,98694.25
2023-05-05T22:14:43.669Z,98702.28
2023-05-05T22:17:11.573Z,98704.13
2023-05-05T22:19:38.782Z,98697.97
2023-05-05T22:22:06.928Z,98692.63
2023-05-05T22:24:34.793Z,98691.78
2023-05-05T22:27:02.391Z,98691.78
2023-05-05T22:29:29.639Z,98690.97
2023-05-05T22:31:57.342Z,98695.50
2023-05-05T22:34:25.751Z,98684.00
2023-05-05T22:36:53.256Z,98690.16
2023-05-05T22:39:20.550Z,98693.03
2023-05-05T22:41:48.261Z,98692.81
2023-05-05T22:44:15.663Z,98693.03
2023-05-05T22:46:43.454Z,98693.84
2023-05-05T22:49:13.012Z,98687.69
2023-05-05T22:51:41.029Z,98687.69
2023-05-05T22:54:08.323Z,98687.69
2023-05-05T22:56:36.146Z,98680.72
2023-05-05T22:59:03.570Z,98674.53
2023-05-05T23:01:32.834Z,98680.72
2023-05-05T23:04:00.104Z,98663.84
2023-05-05T23:06:28.496Z,98673.72
2023-05-05T23:08:55.850Z,98663.03
2023-05-05T23:11:23.398Z,98663.03
2023-05-05T23:13:50.781Z,98658.72
2023-05-05T23:16:18.357Z,98665.69
2023-05-05T23:18:45.825Z,98665.91
2023-05-05T23:21:13.308Z,98665.06
2023-05-05T23:23:40.677Z,98661.41
2023-05-05T23:26:08.195Z,98666.75
2023-05-05T23:28:35.492Z,98664.06
2023-05-05T23:31:02.997Z,98664.25
2023-05-05T23:33:30.280Z,98670.41
2023-05-05T23:35:57.806Z,98664.25
2023-05-05T23:38:25.206Z,98668.78
2023-05-05T23:40:53.548Z,98666.13
2023-05-05T23:43:21.527Z,98674.94
2023-05-05T23:45:49.041Z,98662.41
2023-05-05T23:48:16.348Z,98662.63
2023-05-05T23:50:44.532Z,98659.97
2023-05-05T23:53:11.759Z,98656.44
2023-05-05T23:55:39.295Z,98651.09
2023-05-05T23:58:06.638Z,98645.78
